sensor_id;sensor_type;location;lat;lon;timestamp;P1;durP1;ratioP1;P2;durP2;ratioP2
62523;SDS011;53689;56.878;60.672;2023-03-01T00:01:04;10.20;;;6.03;;
62523;SDS011;53689;56.878;60.672;2023-03-01T00:06:03;11.18;;;6.10;;
62523;SDS011;53689;56.878;60.672;2023-03-01T00:08:31;11.95;;;7.13;;
62523;SDS011;53689;56.878;60.672;2023-03-01T00:11:00;9.35;;;6.53;;
62523;SDS011;53689;56.878;60.672;2023-03-01T00:13:29;9.70;;;6.53;;
62523;SDS011;53689;56.878;60.672;2023-03-01T00:15:57;9.73;;;6.55;;
62523;SDS011;53689;56.878;60.672;2023-03-01T00:18:25;11.98;;;6.53;;
62523;SDS011;53689;56.878;60.672;2023-03-01T00:20:55;10.05;;;5.95;;
62523;SDS011;53689;56.878;60.672;2023-03-01T00:23:23;9.88;;;5.85;;
62523;SDS011;53689;56.878;60.672;2023-03-01T00:25:51;10.70;;;6.10;;
62523;SDS011;53689;56.878;60.672;2023-03-01T00:28:18;10.75;;;6.43;;
62523;SDS011;53689;56.878;60.672;2023-03-01T00:30:47;12.43;;;6.60;;
62523;SDS011;53689;56.878;60.672;2023-03-01T00:33:14;9.55;;;6.32;;
62523;SDS011;53689;56.878;60.672;2023-03-01T00:35:42;10.45;;;6.18;;
62523;SDS011;53689;56.878;60.672;2023-03-01T00:38:11;9.30;;;5.88;;
62523;SDS011;53689;56.878;60.672;2023-03-01T00:40:38;10.88;;;6.25;;
62523;SDS011;53689;56.878;60.672;2023-03-01T00:43:06;9.95;;;6.20;;
62523;SDS011;53689;56.878;60.672;2023-03-01T00:45:35;9.77;;;6.25;;
62523;SDS011;53689;56.878;60.672;2023-03-01T00:48:03;9.02;;;5.95;;
62523;SDS011;53689;56.878;60.672;2023-03-01T00:50:32;11.07;;;6.25;;
62523;SDS011;53689;56.878;60.672;2023-03-01T00:53:01;10.38;;;5.97;;
62523;SDS011;53689;56.878;60.672;2023-03-01T00:55:30;9.32;;;6.25;;
62523;SDS011;53689;56.878;60.672;2023-03-01T00:57:58;10.13;;;6.05;;
62523;SDS011;53689;56.878;60.672;2023-03-01T01:00:26;10.55;;;6.28;;
62523;SDS011;53689;56.878;60.672;2023-03-01T01:02:53;9.18;;;5.85;;
62523;SDS011;53689;56.878;60.672;2023-03-01T01:05:21;10.70;;;6.50;;
62523;SDS011;53689;56.878;60.672;2023-03-01T01:07:49;12.27;;;6.72;;
62523;SDS011;53689;56.878;60.672;2023-03-01T01:10:16;8.73;;;6.03;;
62523;SDS011;53689;56.878;60.672;2023-03-01T01:12:46;10.05;;;5.65;;
62523;SDS011;53689;56.878;60.672;2023-03-01T01:15:13;9.38;;;6.45;;
62523;SDS011;53689;56.878;60.672;2023-03-01T01:17:41;9.60;;;6.18;;
62523;SDS011;53689;56.878;60.672;2023-03-01T01:20:10;9.88;;;6.05;;
62523;SDS011;53689;56.878;60.672;2023-03-01T01:22:38;8.98;;;6.10;;
62523;SDS011;53689;56.878;60.672;2023-03-01T01:25:08;9.50;;;6.13;;
62523;SDS011;53689;56.878;60.672;2023-03-01T01:27:37;9.10;;;6.25;;
62523;SDS011;53689;56.878;60.672;2023-03-01T01:30:08;9.95;;;6.75;;
62523;SDS011;53689;56.878;60.672;2023-03-01T01:32:36;9.63;;;6.20;;
62523;SDS011;53689;56.878;60.672;2023-03-01T01:35:04;9.65;;;6.22;;
62523;SDS011;53689;56.878;60.672;2023-03-01T01:37:32;9.55;;;5.72;;
62523;SDS011;53689;56.878;60.672;2023-03-01T01:40:00;8.50;;;5.88;;
62523;SDS011;53689;56.878;60.672;2023-03-01T01:42:28;8.80;;;5.88;;
62523;SDS011;53689;56.878;60.672;2023-03-01T01:47:52;9.82;;;5.93;;
62523;SDS011;53689;56.878;60.672;2023-03-01T01:50:24;10.45;;;6.55;;
62523;SDS011;53689;56.878;60.672;2023-03-01T01:52:52;8.20;;;5.75;;
62523;SDS011;53689;56.878;60.672;2023-03-01T01:55:22;9.38;;;5.95;;
62523;SDS011;53689;56.878;60.672;2023-03-01T01:57:53;8.57;;;5.50;;
62523;SDS011;53689;56.878;60.672;2023-03-01T02:00:27;12.77;;;5.75;;
62523;SDS011;53689;56.878;60.672;2023-03-01T02:02:57;14.30;;;7.22;;
62523;SDS011;53689;56.878;60.672;2023-03-01T02:05:37;14.25;;;6.95;;
62523;SDS011;53689;56.878;60.672;2023-03-01T02:08:10;11.93;;;7.38;;
62523;SDS011;53689;56.878;60.672;2023-03-01T02:10:39;9.10;;;5.82;;
62523;SDS011;53689;56.878;60.672;2023-03-01T02:13:09;8.80;;;5.78;;
62523;SDS011;53689;56.878;60.672;2023-03-01T02:15:39;8.97;;;5.83;;
62523;SDS011;53689;56.878;60.672;2023-03-01T02:18:08;10.68;;;6.22;;
62523;SDS011;53689;56.878;60.672;2023-03-01T02:20:40;10.45;;;5.75;;
62523;SDS011;53689;56.878;60.672;2023-03-01T02:23:16;10.32;;;6.28;;
62523;SDS011;53689;56.878;60.672;2023-03-01T02:25:47;9.70;;;6.10;;
62523;SDS011;53689;56.878;60.672;2023-03-01T02:28:27;10.30;;;6.75;;
62523;SDS011;53689;56.878;60.672;2023-03-01T02:30:57;11.75;;;7.25;;
62523;SDS011;53689;56.878;60.672;2023-03-01T02:33:26;8.77;;;6.68;;
62523;SDS011;53689;56.878;60.672;2023-03-01T02:35:54;11.00;;;7.00;;
62523;SDS011;53689;56.878;60.672;2023-03-01T02:38:22;11.32;;;7.35;;
62523;SDS011;53689;56.878;60.672;2023-03-01T02:40:51;10.73;;;7.15;;
62523;SDS011;53689;56.878;60.672;2023-03-01T02:43:19;9.57;;;7.15;;
62523;SDS011;53689;56.878;60.672;2023-03-01T02:45:51;10.57;;;8.02;;
62523;SDS011;53689;56.878;60.672;2023-03-01T02:48:20;10.32;;;7.40;;
62523;SDS011;53689;56.878;60.672;2023-03-01T02:50:52;11.38;;;7.57;;
62523;SDS011;53689;56.878;60.672;2023-03-01T02:53:34;12.23;;;8.18;;
62523;SDS011;53689;56.878;60.672;2023-03-01T02:56:09;9.68;;;7.63;;
62523;SDS011;53689;56.878;60.672;2023-03-01T02:58:38;10.73;;;7.78;;
62523;SDS011;53689;56.878;60.672;2023-03-01T03:01:07;10.98;;;8.43;;
62523;SDS011;53689;56.878;60.672;2023-03-01T03:03:35;10.65;;;8.48;;
62523;SDS011;53689;56.878;60.672;2023-03-01T03:06:03;11.57;;;8.77;;
62523;SDS011;53689;56.878;60.672;2023-03-01T03:08:31;11.55;;;9.02;;
62523;SDS011;53689;56.878;60.672;2023-03-01T03:10:58;11.68;;;8.38;;
62523;SDS011;53689;56.878;60.672;2023-03-01T03:13:26;12.52;;;9.10;;
62523;SDS011;53689;56.878;60.672;2023-03-01T03:15:55;11.70;;;8.05;;
62523;SDS011;53689;56.878;60.672;2023-03-01T03:18:24;9.75;;;7.72;;
62523;SDS011;53689;56.878;60.672;2023-03-01T03:20:52;12.02;;;7.70;;
62523;SDS011;53689;56.878;60.672;2023-03-01T03:23:21;12.02;;;8.23;;
62523;SDS011;53689;56.878;60.672;2023-03-01T03:25:48;11.25;;;7.68;;
62523;SDS011;53689;56.878;60.672;2023-03-01T03:28:17;9.85;;;8.07;;
62523;SDS011;53689;56.878;60.672;2023-03-01T03:30:45;13.45;;;8.27;;
62523;SDS011;53689;56.878;60.672;2023-03-01T03:33:12;11.90;;;8.30;;
62523;SDS011;53689;56.878;60.672;2023-03-01T03:35:44;11.05;;;7.70;;
62523;SDS011;53689;56.878;60.672;2023-03-01T03:38:13;10.52;;;7.70;;
62523;SDS011;53689;56.878;60.672;2023-03-01T03:43:11;11.35;;;7.55;;
62523;SDS011;53689;56.878;60.672;2023-03-01T03:45:40;12.95;;;8.60;;
62523;SDS011;53689;56.878;60.672;2023-03-01T03:48:08;12.02;;;6.90;;
62523;SDS011;53689;56.878;60.672;2023-03-01T03:50:37;9.83;;;7.30;;
62523;SDS011;53689;56.878;60.672;2023-03-01T03:53:07;9.65;;;6.63;;
62523;SDS011;53689;56.878;60.672;2023-03-01T03:55:37;9.05;;;6.60;;
62523;SDS011;53689;56.878;60.672;2023-03-01T03:58:06;9.77;;;6.95;;
62523;SDS011;53689;56.878;60.672;2023-03-01T04:00:35;9.48;;;6.43;;
62523;SDS011;53689;56.878;60.672;2023-03-01T04:03:04;10.23;;;6.53;;
62523;SDS011;53689;56.878;60.672;2023-03-01T04:05:33;8.63;;;6.00;;
62523;SDS011;53689;56.878;60.672;2023-03-01T04:08:02;10.13;;;6.67;;
62523;SDS011;53689;56.878;60.672;2023-03-01T04:10:32;13.85;;;7.13;;
62523;SDS011;53689;56.878;60.672;2023-03-01T04:13:01;10.85;;;6.50;;
62523;SDS011;53689;56.878;60.672;2023-03-01T04:15:29;9.35;;;6.72;;
62523;SDS011;53689;56.878;60.672;2023-03-01T04:17:59;10.10;;;6.65;;
62523;SDS011;53689;56.878;60.672;2023-03-01T04:20:27;9.05;;;6.40;;
62523;SDS011;53689;56.878;60.672;2023-03-01T04:25:25;11.07;;;6.70;;
62523;SDS011;53689;56.878;60.672;2023-03-01T04:27:54;12.50;;;7.25;;
62523;SDS011;53689;56.878;60.672;2023-03-01T04:30:22;10.68;;;7.15;;
62523;SDS011;53689;56.878;60.672;2023-03-01T04:32:50;10.90;;;7.63;;
62523;SDS011;53689;56.878;60.672;2023-03-01T04:35:17;12.75;;;7.50;;
62523;SDS011;53689;56.878;60.672;2023-03-01T04:37:45;11.60;;;6.88;;
62523;SDS011;53689;56.878;60.672;2023-03-01T04:40:13;16.92;;;10.45;;
62523;SDS011;53689;56.878;60.672;2023-03-01T04:42:41;16.65;;;9.80;;
62523;SDS011;53689;56.878;60.672;2023-03-01T04:45:10;13.70;;;7.93;;
62523;SDS011;53689;56.878;60.672;2023-03-01T04:47:38;11.27;;;7.43;;
62523;SDS011;53689;56.878;60.672;2023-03-01T04:50:07;16.57;;;8.80;;
62523;SDS011;53689;56.878;60.672;2023-03-01T04:52:35;27.53;;;18.20;;
62523;SDS011;53689;56.878;60.672;2023-03-01T04:55:04;19.63;;;12.63;;
62523;SDS011;53689;56.878;60.672;2023-03-01T04:57:33;16.30;;;9.47;;
62523;SDS011;53689;56.878;60.672;2023-03-01T05:00:01;15.73;;;9.77;;
62523;SDS011;53689;56.878;60.672;2023-03-01T05:02:30;15.88;;;9.70;;
62523;SDS011;53689;56.878;60.672;2023-03-01T05:07:25;15.77;;;8.93;;
62523;SDS011;53689;56.878;60.672;2023-03-01T05:09:53;14.85;;;9.27;;
62523;SDS011;53689;56.878;60.672;2023-03-01T05:12:20;14.25;;;9.35;;
62523;SDS011;53689;56.878;60.672;2023-03-01T05:14:48;14.40;;;9.50;;
62523;SDS011;53689;56.878;60.672;2023-03-01T05:17:16;14.07;;;8.57;;
62523;SDS011;53689;56.878;60.672;2023-03-01T05:19:44;16.73;;;10.65;;
62523;SDS011;53689;56.878;60.672;2023-03-01T05:22:12;16.00;;;10.77;;
62523;SDS011;53689;56.878;60.672;2023-03-01T05:24:40;16.05;;;9.93;;
62523;SDS011;53689;56.878;60.672;2023-03-01T05:27:07;16.13;;;10.10;;
62523;SDS011;53689;56.878;60.672;2023-03-01T05:29:35;18.52;;;11.88;;
62523;SDS011;53689;56.878;60.672;2023-03-01T05:32:03;22.80;;;13.13;;
62523;SDS011;53689;56.878;60.672;2023-03-01T05:34:32;20.33;;;10.85;;
62523;SDS011;53689;56.878;60.672;2023-03-01T05:39:29;16.52;;;10.93;;
62523;SDS011;53689;56.878;60.672;2023-03-01T05:41:58;20.45;;;11.20;;
62523;SDS011;53689;56.878;60.672;2023-03-01T05:44:28;21.10;;;12.27;;
62523;SDS011;53689;56.878;60.672;2023-03-01T05:46:56;20.38;;;12.38;;
62523;SDS011;53689;56.878;60.672;2023-03-01T05:49:24;21.95;;;12.18;;
62523;SDS011;53689;56.878;60.672;2023-03-01T05:51:53;20.23;;;13.30;;
62523;SDS011;53689;56.878;60.672;2023-03-01T05:54:22;25.73;;;14.85;;
62523;SDS011;53689;56.878;60.672;2023-03-01T05:56:50;22.10;;;13.35;;
62523;SDS011;53689;56.878;60.672;2023-03-01T05:59:17;19.05;;;11.77;;
62523;SDS011;53689;56.878;60.672;2023-03-01T06:01:45;21.27;;;13.35;;
62523;SDS011;53689;56.878;60.672;2023-03-01T06:04:13;21.27;;;12.02;;
62523;SDS011;53689;56.878;60.672;2023-03-01T06:06:40;21.92;;;12.27;;
62523;SDS011;53689;56.878;60.672;2023-03-01T06:09:08;21.35;;;11.68;;
62523;SDS011;53689;56.878;60.672;2023-03-01T06:11:38;14.55;;;8.80;;
62523;SDS011;53689;56.878;60.672;2023-03-01T06:14:06;22.33;;;11.32;;
62523;SDS011;53689;56.878;60.672;2023-03-01T06:16:34;19.20;;;10.57;;
62523;SDS011;53689;56.878;60.672;2023-03-01T06:19:02;21.13;;;14.35;;
62523;SDS011;53689;56.878;60.672;2023-03-01T06:21:30;16.00;;;10.90;;
62523;SDS011;53689;56.878;60.672;2023-03-01T06:23:57;19.35;;;11.48;;
62523;SDS011;53689;56.878;60.672;2023-03-01T06:26:25;19.38;;;13.73;;
62523;SDS011;53689;56.878;60.672;2023-03-01T06:28:54;25.35;;;14.68;;
62523;SDS011;53689;56.878;60.672;2023-03-01T06:31:22;25.13;;;15.43;;
62523;SDS011;53689;56.878;60.672;2023-03-01T06:33:50;18.38;;;11.25;;
62523;SDS011;53689;56.878;60.672;2023-03-01T06:36:18;21.83;;;14.55;;
62523;SDS011;53689;56.878;60.672;2023-03-01T06:38:46;26.80;;;14.80;;
62523;SDS011;53689;56.878;60.672;2023-03-01T06:41:13;26.52;;;16.77;;
62523;SDS011;53689;56.878;60.672;2023-03-01T06:43:41;21.98;;;12.10;;
62523;SDS011;53689;56.878;60.672;2023-03-01T06:46:10;21.35;;;13.30;;
62523;SDS011;53689;56.878;60.672;2023-03-01T06:48:38;26.23;;;14.88;;
62523;SDS011;53689;56.878;60.672;2023-03-01T06:51:06;20.70;;;13.38;;
62523;SDS011;53689;56.878;60.672;2023-03-01T06:53:33;26.45;;;16.55;;
62523;SDS011;53689;56.878;60.672;2023-03-01T06:56:01;29.85;;;18.10;;
62523;SDS011;53689;56.878;60.672;2023-03-01T06:58:29;26.60;;;16.67;;
62523;SDS011;53689;56.878;60.672;2023-03-01T07:00:56;23.02;;;14.07;;
62523;SDS011;53689;56.878;60.672;2023-03-01T07:03:25;18.70;;;11.25;;
62523;SDS011;53689;56.878;60.672;2023-03-01T07:05:53;31.50;;;17.85;;
62523;SDS011;53689;56.878;60.672;2023-03-01T07:08:21;29.23;;;17.85;;
62523;SDS011;53689;56.878;60.672;2023-03-01T07:10:48;27.80;;;18.20;;
62523;SDS011;53689;56.878;60.672;2023-03-01T07:13:22;30.27;;;19.50;;
62523;SDS011;53689;56.878;60.672;2023-03-01T07:15:50;31.85;;;19.67;;
62523;SDS011;53689;56.878;60.672;2023-03-01T07:18:17;28.23;;;16.48;;
62523;SDS011;53689;56.878;60.672;2023-03-01T07:20:47;24.00;;;16.08;;
62523;SDS011;53689;56.878;60.672;2023-03-01T07:23:14;26.80;;;16.23;;
62523;SDS011;53689;56.878;60.672;2023-03-01T07:25:42;25.27;;;17.00;;
62523;SDS011;53689;56.878;60.672;2023-03-01T07:28:11;28.30;;;16.70;;
62523;SDS011;53689;56.878;60.672;2023-03-01T07:30:39;25.67;;;16.15;;
62523;SDS011;53689;56.878;60.672;2023-03-01T07:33:06;30.55;;;17.75;;
62523;SDS011;53689;56.878;60.672;2023-03-01T07:35:34;26.63;;;16.77;;
62523;SDS011;53689;56.878;60.672;2023-03-01T07:38:03;27.75;;;16.15;;
62523;SDS011;53689;56.878;60.672;2023-03-01T07:40:31;31.10;;;19.17;;
62523;SDS011;53689;56.878;60.672;2023-03-01T07:42:59;36.92;;;23.88;;
62523;SDS011;53689;56.878;60.672;2023-03-01T07:45:27;37.15;;;22.67;;
62523;SDS011;53689;56.878;60.672;2023-03-01T07:47:55;35.53;;;20.30;;
62523;SDS011;53689;56.878;60.672;2023-03-01T07:50:23;32.95;;;19.77;;
62523;SDS011;53689;56.878;60.672;2023-03-01T07:52:51;29.85;;;18.90;;
62523;SDS011;53689;56.878;60.672;2023-03-01T07:55:20;32.28;;;19.42;;
62523;SDS011;53689;56.878;60.672;2023-03-01T07:57:47;31.42;;;18.35;;
62523;SDS011;53689;56.878;60.672;2023-03-01T08:00:15;36.30;;;20.80;;
62523;SDS011;53689;56.878;60.672;2023-03-01T08:02:43;27.67;;;18.83;;
62523;SDS011;53689;56.878;60.672;2023-03-01T08:05:11;32.45;;;19.45;;
62523;SDS011;53689;56.878;60.672;2023-03-01T08:07:38;33.28;;;20.95;;
62523;SDS011;53689;56.878;60.672;2023-03-01T08:10:06;33.22;;;19.17;;
62523;SDS011;53689;56.878;60.672;2023-03-01T08:12:36;28.45;;;20.20;;
62523;SDS011;53689;56.878;60.672;2023-03-01T08:15:04;32.05;;;20.98;;
62523;SDS011;53689;56.878;60.672;2023-03-01T08:17:32;29.40;;;20.20;;
62523;SDS011;53689;56.878;60.672;2023-03-01T08:20:00;31.58;;;20.63;;
62523;SDS011;53689;56.878;60.672;2023-03-01T08:22:28;31.30;;;21.30;;
62523;SDS011;53689;56.878;60.672;2023-03-01T08:24:55;34.50;;;22.65;;
62523;SDS011;53689;56.878;60.672;2023-03-01T08:27:23;34.42;;;21.80;;
62523;SDS011;53689;56.878;60.672;2023-03-01T08:29:52;31.75;;;21.52;;
62523;SDS011;53689;56.878;60.672;2023-03-01T08:32:20;32.70;;;21.40;;
62523;SDS011;53689;56.878;60.672;2023-03-01T08:34:49;29.77;;;19.67;;
62523;SDS011;53689;56.878;60.672;2023-03-01T08:37:16;30.75;;;19.55;;
62523;SDS011;53689;56.878;60.672;2023-03-01T08:39:44;34.67;;;21.95;;
62523;SDS011;53689;56.878;60.672;2023-03-01T08:42:12;33.70;;;20.75;;
62523;SDS011;53689;56.878;60.672;2023-03-01T08:44:39;29.90;;;20.85;;
62523;SDS011;53689;56.878;60.672;2023-03-01T08:47:09;44.05;;;35.58;;
62523;SDS011;53689;56.878;60.672;2023-03-01T08:49:36;44.83;;;31.70;;
62523;SDS011;53689;56.878;60.672;2023-03-01T08:52:04;31.98;;;21.13;;
62523;SDS011;53689;56.878;60.672;2023-03-01T08:54:32;30.70;;;22.63;;
62523;SDS011;53689;56.878;60.672;2023-03-01T08:57:01;29.73;;;18.30;;
62523;SDS011;53689;56.878;60.672;2023-03-01T08:59:29;29.70;;;18.67;;
62523;SDS011;53689;56.878;60.672;2023-03-01T09:01:57;28.23;;;18.17;;
62523;SDS011;53689;56.878;60.672;2023-03-01T09:04:27;31.00;;;19.27;;
62523;SDS011;53689;56.878;60.672;2023-03-01T09:06:54;29.38;;;18.27;;
62523;SDS011;53689;56.878;60.672;2023-03-01T09:09:22;35.33;;;19.92;;
62523;SDS011;53689;56.878;60.672;2023-03-01T09:11:50;32.63;;;18.48;;
62523;SDS011;53689;56.878;60.672;2023-03-01T09:14:18;26.95;;;17.52;;
62523;SDS011;53689;56.878;60.672;2023-03-01T09:16:45;31.25;;;19.08;;
62523;SDS011;53689;56.878;60.672;2023-03-01T09:19:13;29.70;;;18.23;;
62523;SDS011;53689;56.878;60.672;2023-03-01T09:21:43;37.42;;;22.92;;
62523;SDS011;53689;56.878;60.672;2023-03-01T09:24:12;31.63;;;20.00;;
62523;SDS011;53689;56.878;60.672;2023-03-01T09:26:42;37.22;;;26.25;;
62523;SDS011;53689;56.878;60.672;2023-03-01T09:29:10;71.95;;;53.40;;
62523;SDS011;53689;56.878;60.672;2023-03-01T09:31:38;31.20;;;19.65;;
62523;SDS011;53689;56.878;60.672;2023-03-01T09:34:06;29.48;;;19.58;;
62523;SDS011;53689;56.878;60.672;2023-03-01T09:36:34;33.20;;;20.33;;
62523;SDS011;53689;56.878;60.672;2023-03-01T09:39:03;33.55;;;20.67;;
62523;SDS011;53689;56.878;60.672;2023-03-01T09:44:10;40.65;;;24.55;;
62523;SDS011;53689;56.878;60.672;2023-03-01T09:46:47;35.22;;;23.00;;
62523;SDS011;53689;56.878;60.672;2023-03-01T09:49:15;36.53;;;21.75;;
62523;SDS011;53689;56.878;60.672;2023-03-01T09:51:48;34.50;;;21.90;;
62523;SDS011;53689;56.878;60.672;2023-03-01T09:54:24;41.17;;;21.48;;
62523;SDS011;53689;56.878;60.672;2023-03-01T09:56:54;34.35;;;19.88;;
62523;SDS011;53689;56.878;60.672;2023-03-01T09:59:34;31.10;;;19.33;;
62523;SDS011;53689;56.878;60.672;2023-03-01T10:02:18;36.88;;;21.27;;
62523;SDS011;53689;56.878;60.672;2023-03-01T10:07:27;35.03;;;21.80;;
62523;SDS011;53689;56.878;60.672;2023-03-01T10:12:33;36.58;;;20.98;;
62523;SDS011;53689;56.878;60.672;2023-03-01T10:15:04;33.42;;;20.92;;
62523;SDS011;53689;56.878;60.672;2023-03-01T10:17:37;33.85;;;22.02;;
62523;SDS011;53689;56.878;60.672;2023-03-01T10:20:17;34.70;;;20.73;;
62523;SDS011;53689;56.878;60.672;2023-03-01T10:22:47;32.10;;;19.50;;
62523;SDS011;53689;56.878;60.672;2023-03-01T10:25:20;28.27;;;19.15;;
62523;SDS011;53689;56.878;60.672;2023-03-01T10:27:59;31.88;;;18.60;;
62523;SDS011;53689;56.878;60.672;2023-03-01T10:30:34;30.13;;;19.50;;
62523;SDS011;53689;56.878;60.672;2023-03-01T10:33:03;36.10;;;18.85;;
62523;SDS011;53689;56.878;60.672;2023-03-01T10:35:38;38.13;;;24.73;;
62523;SDS011;53689;56.878;60.672;2023-03-01T10:38:07;40.60;;;27.90;;
62523;SDS011;53689;56.878;60.672;2023-03-01T10:40:49;35.05;;;22.88;;
62523;SDS011;53689;56.878;60.672;2023-03-01T10:43:18;32.45;;;19.88;;
62523;SDS011;53689;56.878;60.672;2023-03-01T10:45:47;36.58;;;22.15;;
62523;SDS011;53689;56.878;60.672;2023-03-01T10:48:16;42.72;;;21.15;;
62523;SDS011;53689;56.878;60.672;2023-03-01T10:50:45;31.70;;;20.25;;
62523;SDS011;53689;56.878;60.672;2023-03-01T10:53:20;35.63;;;19.10;;
62523;SDS011;53689;56.878;60.672;2023-03-01T10:55:57;32.85;;;19.70;;
62523;SDS011;53689;56.878;60.672;2023-03-01T10:58:27;33.05;;;19.38;;
62523;SDS011;53689;56.878;60.672;2023-03-01T11:00:56;37.42;;;19.30;;
62523;SDS011;53689;56.878;60.672;2023-03-01T11:05:56;53.22;;;36.10;;
62523;SDS011;53689;56.878;60.672;2023-03-01T11:08:30;40.50;;;25.55;;
62523;SDS011;53689;56.878;60.672;2023-03-01T11:11:07;41.38;;;26.63;;
62523;SDS011;53689;56.878;60.672;2023-03-01T11:13:56;42.22;;;25.00;;
62523;SDS011;53689;56.878;60.672;2023-03-01T11:16:28;37.40;;;21.92;;
62523;SDS011;53689;56.878;60.672;2023-03-01T11:19:06;37.50;;;21.67;;
62523;SDS011;53689;56.878;60.672;2023-03-01T11:21:55;29.80;;;19.75;;
62523;SDS011;53689;56.878;60.672;2023-03-01T11:24:30;30.85;;;20.90;;
62523;SDS011;53689;56.878;60.672;2023-03-01T11:27:08;32.97;;;18.77;;
62523;SDS011;53689;56.878;60.672;2023-03-01T11:29:43;30.55;;;18.30;;
62523;SDS011;53689;56.878;60.672;2023-03-01T11:32:15;32.30;;;18.58;;
62523;SDS011;53689;56.878;60.672;2023-03-01T11:34:43;31.95;;;18.48;;
62523;SDS011;53689;56.878;60.672;2023-03-01T11:40:03;41.47;;;19.73;;
62523;SDS011;53689;56.878;60.672;2023-03-01T11:42:42;31.75;;;19.08;;
62523;SDS011;53689;56.878;60.672;2023-03-01T11:45:17;30.08;;;18.88;;
62523;SDS011;53689;56.878;60.672;2023-03-01T11:47:54;28.92;;;17.38;;
62523;SDS011;53689;56.878;60.672;2023-03-01T11:50:35;34.05;;;19.30;;
62523;SDS011;53689;56.878;60.672;2023-03-01T11:53:22;31.90;;;18.27;;
62523;SDS011;53689;56.878;60.672;2023-03-01T11:56:03;38.33;;;23.25;;
62523;SDS011;53689;56.878;60.672;2023-03-01T11:58:43;43.30;;;21.85;;
62523;SDS011;53689;56.878;60.672;2023-03-01T12:01:29;33.10;;;18.65;;
62523;SDS011;53689;56.878;60.672;2023-03-01T12:07:12;33.80;;;20.85;;
62523;SDS011;53689;56.878;60.672;2023-03-01T12:09:51;30.02;;;19.70;;
62523;SDS011;53689;56.878;60.672;2023-03-01T12:12:31;32.40;;;19.83;;
62523;SDS011;53689;56.878;60.672;2023-03-01T12:15:17;32.10;;;18.83;;
62523;SDS011;53689;56.878;60.672;2023-03-01T12:18:21;29.00;;;17.75;;
62523;SDS011;53689;56.878;60.672;2023-03-01T12:21:00;31.02;;;18.35;;
62523;SDS011;53689;56.878;60.672;2023-03-01T12:23:40;32.97;;;17.92;;
62523;SDS011;53689;56.878;60.672;2023-03-01T12:26:29;30.02;;;18.90;;
62523;SDS011;53689;56.878;60.672;2023-03-01T12:29:13;31.02;;;17.67;;
62523;SDS011;53689;56.878;60.672;2023-03-01T12:32:03;30.15;;;17.63;;
62523;SDS011;53689;56.878;60.672;2023-03-01T12:34:46;26.88;;;16.95;;
62523;SDS011;53689;56.878;60.672;2023-03-01T12:37:25;35.72;;;17.23;;
62523;SDS011;53689;56.878;60.672;2023-03-01T12:40:13;30.00;;;17.42;;
62523;SDS011;53689;56.878;60.672;2023-03-01T12:42:54;31.25;;;18.23;;
62523;SDS011;53689;56.878;60.672;2023-03-01T12:45:35;30.17;;;18.70;;
62523;SDS011;53689;56.878;60.672;2023-03-01T12:48:21;32.90;;;17.48;;
62523;SDS011;53689;56.878;60.672;2023-03-01T12:50:57;33.40;;;18.60;;
62523;SDS011;53689;56.878;60.672;2023-03-01T12:53:30;31.52;;;17.88;;
62523;SDS011;53689;56.878;60.672;2023-03-01T12:56:04;32.13;;;19.40;;
62523;SDS011;53689;56.878;60.672;2023-03-01T12:58:35;31.55;;;17.50;;
62523;SDS011;53689;56.878;60.672;2023-03-01T13:01:21;37.67;;;19.58;;
62523;SDS011;53689;56.878;60.672;2023-03-01T13:04:12;33.35;;;18.15;;
62523;SDS011;53689;56.878;60.672;2023-03-01T13:06:47;33.50;;;21.23;;
62523;SDS011;53689;56.878;60.672;2023-03-01T13:09:34;34.63;;;19.48;;
62523;SDS011;53689;56.878;60.672;2023-03-01T13:15:16;31.15;;;18.75;;
62523;SDS011;53689;56.878;60.672;2023-03-01T13:17:53;36.20;;;22.98;;
62523;SDS011;53689;56.878;60.672;2023-03-01T13:20:23;32.53;;;18.20;;
62523;SDS011;53689;56.878;60.672;2023-03-01T13:23:00;31.10;;;16.80;;
62523;SDS011;53689;56.878;60.672;2023-03-01T13:25:31;29.60;;;17.70;;
62523;SDS011;53689;56.878;60.672;2023-03-01T13:31:06;29.50;;;17.75;;
62523;SDS011;53689;56.878;60.672;2023-03-01T13:33:44;32.92;;;19.77;;
62523;SDS011;53689;56.878;60.672;2023-03-01T13:39:29;32.03;;;19.60;;
62523;SDS011;53689;56.878;60.672;2023-03-01T13:41:58;27.27;;;17.63;;
62523;SDS011;53689;56.878;60.672;2023-03-01T13:44:30;29.75;;;19.30;;
62523;SDS011;53689;56.878;60.672;2023-03-01T13:47:01;29.88;;;19.10;;
62523;SDS011;53689;56.878;60.672;2023-03-01T13:49:41;28.15;;;18.38;;
62523;SDS011;53689;56.878;60.672;2023-03-01T13:52:33;32.38;;;20.40;;
62523;SDS011;53689;56.878;60.672;2023-03-01T13:55:06;37.20;;;25.60;;
62523;SDS011;53689;56.878;60.672;2023-03-01T13:57:44;32.95;;;21.55;;
62523;SDS011;53689;56.878;60.672;2023-03-01T14:00:28;31.02;;;20.08;;
62523;SDS011;53689;56.878;60.672;2023-03-01T14:03:02;36.75;;;20.23;;
62523;SDS011;53689;56.878;60.672;2023-03-01T14:05:37;32.60;;;20.13;;
62523;SDS011;53689;56.878;60.672;2023-03-01T14:08:17;32.50;;;18.58;;
62523;SDS011;53689;56.878;60.672;2023-03-01T14:10:51;31.60;;;20.25;;
62523;SDS011;53689;56.878;60.672;2023-03-01T14:13:28;32.80;;;19.23;;
62523;SDS011;53689;56.878;60.672;2023-03-01T14:16:11;84.25;;;51.53;;
62523;SDS011;53689;56.878;60.672;2023-03-01T14:18:47;40.88;;;28.50;;
62523;SDS011;53689;56.878;60.672;2023-03-01T14:21:24;39.47;;;20.52;;
62523;SDS011;53689;56.878;60.672;2023-03-01T14:23:54;31.45;;;19.48;;
62523;SDS011;53689;56.878;60.672;2023-03-01T14:26:22;31.50;;;19.27;;
62523;SDS011;53689;56.878;60.672;2023-03-01T14:28:50;32.95;;;18.70;;
62523;SDS011;53689;56.878;60.672;2023-03-01T14:36:46;31.17;;;19.05;;
62523;SDS011;53689;56.878;60.672;2023-03-01T14:39:19;29.60;;;17.88;;
62523;SDS011;53689;56.878;60.672;2023-03-01T14:41:51;32.45;;;18.80;;
62523;SDS011;53689;56.878;60.672;2023-03-01T14:44:21;31.38;;;19.55;;
62523;SDS011;53689;56.878;60.672;2023-03-01T14:46:51;37.20;;;19.25;;
62523;SDS011;53689;56.878;60.672;2023-03-01T14:49:22;31.92;;;20.13;;
62523;SDS011;53689;56.878;60.672;2023-03-01T14:51:53;32.28;;;19.58;;
62523;SDS011;53689;56.878;60.672;2023-03-01T14:54:27;32.90;;;19.08;;
62523;SDS011;53689;56.878;60.672;2023-03-01T14:57:02;29.83;;;18.40;;
62523;SDS011;53689;56.878;60.672;2023-03-01T14:59:30;28.90;;;17.45;;
62523;SDS011;53689;56.878;60.672;2023-03-01T15:02:00;25.88;;;17.00;;
62523;SDS011;53689;56.878;60.672;2023-03-01T15:04:28;40.25;;;23.45;;
62523;SDS011;53689;56.878;60.672;2023-03-01T15:06:57;39.28;;;27.20;;
62523;SDS011;53689;56.878;60.672;2023-03-01T15:09:26;45.60;;;32.88;;
62523;SDS011;53689;56.878;60.672;2023-03-01T15:11:54;45.78;;;31.67;;
62523;SDS011;53689;56.878;60.672;2023-03-01T15:14:25;37.08;;;24.70;;
62523;SDS011;53689;56.878;60.672;2023-03-01T15:16:54;34.83;;;23.50;;
62523;SDS011;53689;56.878;60.672;2023-03-01T15:19:23;34.13;;;23.65;;
62523;SDS011;53689;56.878;60.672;2023-03-01T15:21:54;29.38;;;19.95;;
62523;SDS011;53689;56.878;60.672;2023-03-01T15:24:24;29.50;;;19.35;;